Sealand Michigan — 9HA3390 — position and weather

sailwx.info

Track history (hours):
 
Tides and Currents Weather Stations Pressure Air Temp Water Temp Dewpoint Dewpoint Depression Visibility Wind Speed Wind Dir Waves Ship Positions

Sealand Michigan

Last reported at 2018-Aug-19 15:00 UTC. Time now 2018-Aug-19 15:20 UTC.
Position N 40°50' E 014°17'.

Length 303 m; draft 11.4 m.

Type: Cargo ship. MMSI: 229538000.

Date/timePositionNaut miles runAvg speedWind from/ knotsBaromVisibWave heightAir tempDewpointWater temp
2018-Aug-19 15:00N 40°50' E 014°17'0 0.0
2018-Aug-19 14:30N 40°50' E 014°17'0 0.0
2018-Aug-19 14:00N 40°50' E 014°17'0 0.0
2018-Aug-19 13:30N 40°50' E 014°17'0 0.0
2018-Aug-19 12:57N 40°50' E 014°17'0 0.0
2018-Aug-19 12:29N 40°50' E 014°17'0 0.0
2018-Aug-19 11:57N 40°50' E 014°17'0 0.0
2018-Aug-19 11:23N 40°50' E 014°17'0 0.0
2018-Aug-19 11:00N 40°50' E 014°17'0 0.0
2018-Aug-19 10:26N 40°50' E 014°17'0 0.0
2018-Aug-19 10:00N 40°50' E 014°17'0 0.0
2018-Aug-19 09:30N 40°50' E 014°17'0 0.0
2018-Aug-19 08:56N 40°50' E 014°17'0 0.0
2018-Aug-19 08:29N 40°50' E 014°17'0 0.0
2018-Aug-19 08:00N 40°50' E 014°17'0 0.0
2018-Aug-19 07:30N 40°50' E 014°17'0 0.0
2018-Aug-19 06:59N 40°50' E 014°17'0 0.0
2018-Aug-19 06:24N 40°50' E 014°17'0 0.0
2018-Aug-19 05:57N 40°50' E 014°17'0 0.0
2018-Aug-19 05:30N 40°50' E 014°17'0 0.0
2018-Aug-19 05:00N 40°50' E 014°17'0 1.0
2018-Aug-19 04:29N 40°50' E 014°17'3 6.4
2018-Aug-19 04:00N 40°47' E 014°17'1 2.6
2018-Aug-19 03:30N 40°46' E 014°17'0 0.3
2018-Aug-19 03:01N 40°46' E 014°16'0 0.3
2018-Aug-19 02:30N 40°46' E 014°16'0 0.7
2018-Aug-19 02:00N 40°46' E 014°16'1 1.0
2018-Aug-19 01:30N 40°45' E 014°16'3 5.6
2018-Aug-19 01:00N 40°43' E 014°14'4 8.5
2018-Aug-19 00:30N 40°41' E 014°09'713.4
2018-Aug-19 00:00N 40°38' E 014°01'714.7
2018-Aug-18 23:30N 40°38' E 013°51'714.6
2018-Aug-18 23:00N 40°38' E 013°42'714.6
2018-Aug-18 22:30N 40°40' E 013°32'714.7
2018-Aug-18 22:00N 40°41' E 013°23'815.4
2018-Aug-18 21:29N 40°43' E 013°13'715.5
2018-Aug-18 21:00N 40°45' E 013°03'815.6
2018-Aug-18 20:30N 40°47' E 012°53'815.4
2018-Aug-18 20:00N 40°49' E 012°43'15615.4
2018-Aug-18 09:49N 41°20' E 009°20'1013.8
2018-Aug-18 09:06N 41°18' E 009°07'114.3
2018-Aug-18 09:00N 41°18' E 009°06'714.8
2018-Aug-18 08:30N 41°19' E 008°56'714.8
2018-Aug-18 08:00N 41°19' E 008°46'815.4
2018-Aug-18 07:30N 41°19' E 008°36'815.4
2018-Aug-18 07:00N 41°19' E 008°25'815.5
2018-Aug-18 06:30N 41°18' E 008°15'815.4
2018-Aug-18 06:00N 41°18' E 008°05'815.4
2018-Aug-18 05:30N 41°18' E 007°54'815.4
2018-Aug-18 05:00N 41°18' E 007°44'815.3
2018-Aug-18 04:30N 41°18' E 007°34'815.0
2018-Aug-18 04:00N 41°19' E 007°24'714.9
2018-Aug-18 03:30N 41°18' E 007°14'815.1
2018-Aug-18 03:00N 41°18' E 007°04'915.2
2018-Aug-18 02:23N 41°18' E 006°52'615.3
2018-Aug-18 01:58N 41°18' E 006°43'815.3
2018-Aug-18 01:24N 41°18' E 006°32'1615.2
2018-Aug-18 00:22N 41°18' E 006°11'16615.2
2018-Aug-17 13:26N 41°16' E 002°29'715.2
2018-Aug-17 13:00N 41°16' E 002°21'713.9
2018-Aug-17 12:30N 41°16' E 002°11'3 5.7
2018-Aug-17 12:00N 41°19' E 002°09'0 0.6
2018-Aug-17 11:28N 41°19' E 002°09'0 0.0
2018-Aug-17 10:58N 41°19' E 002°09'0 0.2
2018-Aug-17 10:28N 41°19' E 002°09'0 0.2
2018-Aug-17 09:58N 41°19' E 002°09'0 0.0
2018-Aug-17 09:28N 41°18' E 002°09'0 0.0
2018-Aug-17 08:58N 41°18' E 002°09'0 0.2
2018-Aug-17 08:28N 41°19' E 002°09'0 0.0
2018-Aug-17 07:58N 41°19' E 002°09'0 0.0
2018-Aug-17 07:28N 41°19' E 002°09'0 0.2
2018-Aug-17 06:58N 41°19' E 002°09'0 0.0
2018-Aug-17 06:28N 41°19' E 002°09'0 0.0
2018-Aug-17 05:58N 41°19' E 002°09'0 0.0
2018-Aug-17 05:28N 41°18' E 002°09'0 0.0
2018-Aug-17 04:58N 41°19' E 002°09'0 0.0
2018-Aug-17 04:28N 41°18' E 002°09'0 0.0
2018-Aug-17 03:58N 41°19' E 002°09'0 0.0
2018-Aug-17 03:28N 41°19' E 002°09'0 0.0
2018-Aug-17 02:58N 41°19' E 002°09'0 0.0
2018-Aug-17 02:25N 41°18' E 002°09'0 0.0
2018-Aug-17 01:58N 41°19' E 002°09'0 0.0
2018-Aug-17 01:28N 41°18' E 002°09'0 0.3
2018-Aug-17 00:58N 41°19' E 002°09'0 0.0
2018-Aug-17 00:28N 41°19' E 002°09'0 0.2
2018-Aug-16 23:58N 41°19' E 002°09'0 0.0
2018-Aug-16 23:28N 41°18' E 002°09'0 0.0
2018-Aug-16 23:00N 41°18' E 002°09'1 2.6
2018-Aug-16 22:30N 41°20' E 002°10'2 5.0
2018-Aug-16 22:00N 41°17' E 002°11'510.2
2018-Aug-16 21:30N 41°17' E 002°18'2 3.8
2018-Aug-16 21:00N 41°16' E 002°20'0 0.3
2018-Aug-16 20:30N 41°16' E 002°20'0 0.6
2018-Aug-16 20:00N 41°16' E 002°20'0 0.3
2018-Aug-16 19:30N 41°16' E 002°20'0 0.8
2018-Aug-16 19:00N 41°16' E 002°21'0 0.6
2018-Aug-16 18:30N 41°16' E 002°21'0 0.3
2018-Aug-16 18:00N 41°16' E 002°21'0 0.4
2018-Aug-16 17:30N 41°16' E 002°21'0 0.3
2018-Aug-16 16:59N 41°16' E 002°20'0 0.4
2018-Aug-16 16:30N 41°16' E 002°20'0 0.4
2018-Aug-16 16:00N 41°16' E 002°20'0 0.5
2018-Aug-16 15:30N 41°17' E 002°20'0 0.4
2018-Aug-16 15:00N 41°17' E 002°19'0 0.4
2018-Aug-16 14:30N 41°17' E 002°19'0 0.4
2018-Aug-16 13:58N 41°16' E 002°19'0 0.7
2018-Aug-16 13:29N 41°16' E 002°20'0 0.5
2018-Aug-16 13:00N 41°16' E 002°20'0 0.2
2018-Aug-16 12:30N 41°16' E 002°20'0 0.2
2018-Aug-16 11:42N 41°16' E 002°19'0 0.5
2018-Aug-16 11:30N 41°16' E 002°19'0 0.4
2018-Aug-16 11:00N 41°16' E 002°19'0 0.5
2018-Aug-16 10:30N 41°17' E 002°19'0 0.9
2018-Aug-16 10:00N 41°17' E 002°19'0 0.7
2018-Aug-16 09:30N 41°17' E 002°18'0 0.8
2018-Aug-16 09:00N 41°17' E 002°18'0 0.5
2018-Aug-16 08:30N 41°16' E 002°18'0 0.3
2018-Aug-16 08:00N 41°16' E 002°18'0 0.5
2018-Aug-16 07:30N 41°16' E 002°18'0 0.7
2018-Aug-16 07:00N 41°16' E 002°18'0 0.1
2018-Aug-16 06:30N 41°16' E 002°18'0 0.0
2018-Aug-16 06:00N 41°16' E 002°18'0 0.2
2018-Aug-16 05:30N 41°16' E 002°18'0 0.9
2018-Aug-16 05:00N 41°15' E 002°18'0 0.9
2018-Aug-16 04:30N 41°15' E 002°18'0 0.9
2018-Aug-16 04:00N 41°14' E 002°18'0 0.9
2018-Aug-16 03:30N 41°14' E 002°17'0 0.8
2018-Aug-16 03:00N 41°14' E 002°17'0 0.6
2018-Aug-16 02:30N 41°13' E 002°17'0 0.3
2018-Aug-16 02:00N 41°13' E 002°17'0 0.1
2018-Aug-16 01:30N 41°13' E 002°17'0 0.1
2018-Aug-16 01:00N 41°13' E 002°17'0 0.3
2018-Aug-16 00:30N 41°13' E 002°18'0 0.1
2018-Aug-16 00:00N 41°13' E 002°18'0 0.0
2018-Aug-15 23:29N 41°13' E 002°18'0 0.2
2018-Aug-15 23:00N 41°13' E 002°17'0 0.1
2018-Aug-15 22:30N 41°13' E 002°17'0 0.2
2018-Aug-15 22:00N 41°13' E 002°17'1 1.2
2018-Aug-15 21:30N 41°13' E 002°18'0 0.2
2018-Aug-15 21:00N 41°13' E 002°18'0 0.9
2018-Aug-15 20:30N 41°13' E 002°19'1 1.5
2018-Aug-15 20:00N 41°13' E 002°20'0 0.6
2018-Aug-15 19:30N 41°13' E 002°20'0 0.7
2018-Aug-15 19:00N 41°13' E 002°20'0 0.8
2018-Aug-15 18:30N 41°13' E 002°20'0 0.1
2018-Aug-15 17:51N 41°13' E 002°20'0 0.6
2018-Aug-15 17:27N 41°14' E 002°20'0 0.2
2018-Aug-15 17:00N 41°13' E 002°20'0 0.3
2018-Aug-15 16:29N 41°14' E 002°20'0 0.7
2018-Aug-15 16:00N 41°14' E 002°20'1 1.0
2018-Aug-15 15:28N 41°14' E 002°19'2 3.4
2018-Aug-15 15:00N 41°15' E 002°17'3 5.0
2018-Aug-15 14:30N 41°14' E 002°14'611.4
2018-Aug-15 14:00N 41°10' E 002°09'611.2
2018-Aug-15 13:30N 41°05' E 002°05'611.3
2018-Aug-15 13:00N 41°00' E 002°02'611.7
2018-Aug-15 12:28N 40°55' E 001°58'511.6
2018-Aug-15 12:00N 40°50' E 001°54'16813.5
2018-Aug-14 23:33N 38°22' E 000°11'313.8
2018-Aug-14 23:18N 38°19' E 000°09'3514.4
2018-Aug-14 20:53N 37°50' W 000°15'614.2
2018-Aug-14 20:27N 37°45' W 000°20'614.2
2018-Aug-14 20:00N 37°40' W 000°25'814.2
2018-Aug-14 19:29N 37°34' W 000°30'814.0
2018-Aug-14 18:55N 37°28' W 000°37'614.3
2018-Aug-14 18:30N 37°24' W 000°42'714.6
2018-Aug-14 18:00N 37°19' W 000°49'714.6
2018-Aug-14 17:30N 37°15' W 000°56'20416.0
2018-Aug-14 04:44N 36°02' W 004°54'620.0
2018-Aug-14 04:27N 36°01' W 005°01'1021.9
2018-Aug-14 04:01N 35°59' W 005°12'1121.1
2018-Aug-14 03:31N 35°58' W 005°25'1019.4
2018-Aug-14 02:58N 35°55' W 005°38'816.4
2018-Aug-14 02:31N 35°54' W 005°47'917.4
2018-Aug-14 01:59N 35°54' W 005°58'818.0
2018-Aug-14 01:30N 35°54' W 006°09'3018.7
2018-Aug-13 23:54N 35°60' W 006°45'3218.9
2018-Aug-13 22:12N 36°08' W 007°24'419.0
2018-Aug-13 21:58N 36°09' W 007°29'818.4
2018-Aug-13 21:30N 36°11' W 007°39'918.9
2018-Aug-13 21:00N 36°14' W 007°50'1119.2
2018-Aug-13 20:27N 36°17' W 008°03'819.0
2018-Aug-13 20:01N 36°19' W 008°13'1018.9
2018-Aug-13 19:30N 36°21' W 008°25'918.7
2018-Aug-13 19:00N 36°23' W 008°36'918.5
2018-Aug-13 18:31N 36°26' W 008°47'918.5
2018-Aug-13 18:00N 36°28' W 008°58'918.8
2018-Aug-13 17:31N 36°31' W 009°09'917.6
2018-Aug-13 17:01N 36°35' W 009°19'918.6
2018-Aug-13 16:31N 36°42' W 009°26'918.7
2018-Aug-13 16:00N 36°50' W 009°33'918.8
2018-Aug-13 15:30N 36°59' W 009°34'918.5
2018-Aug-13 15:00N 37°07' W 009°29'1019.0
2018-Aug-13 14:30N 37°15' W 009°22'1019.3
2018-Aug-13 14:00N 37°23' W 009°15'918.8
2018-Aug-13 13:30N 37°31' W 009°09'918.7
2018-Aug-13 13:01N 37°39' W 009°02'918.0
2018-Aug-13 12:31N 37°46' W 008°56'815.8
2018-Aug-13 12:00N 37°53' W 008°51'3 5.4
2018-Aug-13 11:31N 37°56' W 008°51'0 0.0
2018-Aug-13 10:58N 37°56' W 008°51'0 0.0
2018-Aug-13 10:28N 37°56' W 008°51'0 0.0
2018-Aug-13 09:58N 37°56' W 008°51'0 0.0
2018-Aug-13 09:28N 37°56' W 008°51'0 0.0
2018-Aug-13 08:55N 37°56' W 008°51'0 0.0
2018-Aug-13 08:28N 37°56' W 008°51'0 0.0
2018-Aug-13 07:58N 37°56' W 008°51'0 0.0
2018-Aug-13 07:28N 37°56' W 008°51'0 0.0
2018-Aug-13 06:58N 37°56' W 008°51'0 0.0
2018-Aug-13 06:28N 37°56' W 008°51'0 0.0
2018-Aug-13 05:58N 37°56' W 008°51'0 0.0
2018-Aug-13 05:28N 37°56' W 008°51'0 0.0
2018-Aug-13 04:58N 37°56' W 008°51'0 0.0
2018-Aug-13 04:28N 37°56' W 008°51'0 0.0
2018-Aug-13 03:58N 37°56' W 008°51'0 0.0
2018-Aug-13 03:28N 37°56' W 008°51'0 0.0
2018-Aug-13 02:58N 37°56' W 008°51'0 0.0
2018-Aug-13 02:28N 37°56' W 008°51'0 0.0
2018-Aug-13 01:55N 37°56' W 008°51'0 0.0
2018-Aug-13 01:25N 37°56' W 008°51'0 0.0
2018-Aug-13 00:58N 37°56' W 008°51'0 0.0
2018-Aug-13 00:28N 37°56' W 008°51'0 0.0
2018-Aug-12 23:58N 37°56' W 008°51'0 0.0
2018-Aug-12 23:28N 37°56' W 008°51'0 0.0
2018-Aug-12 22:58N 37°56' W 008°51'0 0.0
2018-Aug-12 22:28N 37°56' W 008°51'0 0.0
2018-Aug-12 21:58N 37°56' W 008°51'0 0.0
2018-Aug-12 21:28N 37°56' W 008°51'0 0.0
2018-Aug-12 20:58N 37°56' W 008°51'0 0.0
2018-Aug-12 20:28N 37°56' W 008°51'0 0.0
2018-Aug-12 19:58N 37°56' W 008°51'0 0.0
2018-Aug-12 19:28N 37°56' W 008°51'0 0.0
2018-Aug-12 18:58N 37°56' W 008°51'0 0.6
2018-Aug-12 18:30N 37°56' W 008°51'1 3.0
2018-Aug-12 18:00N 37°54' W 008°51'4 8.6
2018-Aug-12 17:30N 37°52' W 008°56'2 3.6
2018-Aug-12 17:00N 37°52' W 008°58'816.3
2018-Aug-12 16:30N 37°53' W 009°08'917.7
2018-Aug-12 16:00N 37°52' W 009°19'917.6
2018-Aug-12 15:30N 37°51' W 009°30'917.7
2018-Aug-12 15:00N 37°52' W 009°42'917.7
2018-Aug-12 14:30N 37°53' W 009°53'917.6
2018-Aug-12 13:59N 37°54' W 010°04'917.7
2018-Aug-12 13:30N 37°53' W 010°15'917.6
2018-Aug-12 13:00N 37°54' W 010°26'917.7
2018-Aug-12 12:30N 37°54' W 010°37'918.1
2018-Aug-12 12:00N 37°54' W 010°49'918.2
2018-Aug-12 11:30N 37°54' W 011°01'1017.8
2018-Aug-12 10:57N 37°54' W 011°13'1117.8
2018-Aug-12 10:21N 37°54' W 011°26'817.5
2018-Aug-12 09:54N 37°54' W 011°36'717.8
2018-Aug-12 09:29N 37°54' W 011°46'1817.8
2018-Aug-12 08:29N 37°55' W 012°08'1218.0
2018-Aug-12 07:50N 37°55' W 012°23'918.2
2018-Aug-12 07:19N 37°55' W 012°35'1317.8
2018-Aug-12 06:37N 37°54' W 012°51'51718.0
2018-Aug-11 01:52N 37°59' W 023°47'718.4
2018-Aug-11 01:30N 37°59' W 023°56'918.6
2018-Aug-11 01:00N 37°59' W 024°07'918.3
2018-Aug-11 00:30N 37°59' W 024°19'918.4
2018-Aug-11 00:00N 37°59' W 024°31'918.2
2018-Aug-10 23:30N 37°59' W 024°42'918.6
2018-Aug-10 23:00N 37°59' W 024°54'918.4
2018-Aug-10 22:30N 37°59' W 025°06'918.4
2018-Aug-10 22:00N 37°59' W 025°17'918.7
2018-Aug-10 21:30N 37°59' W 025°29'918.7
2018-Aug-10 21:00N 37°60' W 025°41'918.3
2018-Aug-10 20:30N 38°00' W 025°52'918.3
2018-Aug-10 20:00N 38°00' W 026°04'918.6
2018-Aug-10 19:30N 38°00' W 026°16'918.1
2018-Aug-10 19:00N 37°60' W 026°27'917.8
2018-Aug-10 18:30N 37°59' W 026°39'918.5
2018-Aug-10 18:00N 37°59' W 026°50'918.6
2018-Aug-10 17:30N 37°59' W 027°02'918.2
2018-Aug-10 17:00N 37°59' W 027°14'918.9
2018-Aug-10 16:30N 37°59' W 027°26'918.7
2018-Aug-10 16:00N 37°59' W 027°38'918.5
2018-Aug-10 15:30N 37°59' W 027°49'919.0
2018-Aug-10 15:01N 37°58' W 028°01'917.2
2018-Aug-10 14:30N 37°58' W 028°12'919.1
2018-Aug-10 14:01N 37°58' W 028°24'918.5
2018-Aug-10 13:31N 37°58' W 028°36'918.4
2018-Aug-10 13:01N 37°57' W 028°48'1019.1
2018-Aug-10 12:31N 37°57' W 028°60'918.5
2018-Aug-10 12:01N 37°57' W 029°11'918.9
2018-Aug-10 11:31N 37°56' W 029°23'918.9
2018-Aug-10 11:01N 37°56' W 029°35'918.5
2018-Aug-10 10:30N 37°55' W 029°47'918.6
2018-Aug-10 10:00N 37°55' W 029°59'918.5
2018-Aug-10 09:30N 37°54' W 030°11'1018.6
2018-Aug-10 08:57N 37°54' W 030°24'  
Track history (hours):
 
Tides and Currents Weather Stations Pressure Air Temp Water Temp Dewpoint Dewpoint Depression Visibility Wind Speed Wind Dir Waves Ship Positions

Sealand Michigan

Last reported at 2018-Aug-19 15:00 UTC. Time now 2018-Aug-19 15:20 UTC.
Position N 40°50' E 014°17'.

Length 303 m; draft 11.4 m.

Type: Cargo ship. MMSI: 229538000.

Date/timePositionNaut miles runAvg speedWind from/ knotsBaromVisibWave heightAir tempDewpointWater temp
2018-Aug-19 15:00N 40°50' E 014°17'0 0.0
2018-Aug-19 14:30N 40°50' E 014°17'0 0.0
2018-Aug-19 14:00N 40°50' E 014°17'0 0.0
2018-Aug-19 13:30N 40°50' E 014°17'0 0.0
2018-Aug-19 12:57N 40°50' E 014°17'0 0.0
2018-Aug-19 12:29N 40°50' E 014°17'0 0.0
2018-Aug-19 11:57N 40°50' E 014°17'0 0.0
2018-Aug-19 11:23N 40°50' E 014°17'0 0.0
2018-Aug-19 11:00N 40°50' E 014°17'0 0.0
2018-Aug-19 10:26N 40°50' E 014°17'0 0.0
2018-Aug-19 10:00N 40°50' E 014°17'0 0.0
2018-Aug-19 09:30N 40°50' E 014°17'0 0.0
2018-Aug-19 08:56N 40°50' E 014°17'0 0.0
2018-Aug-19 08:29N 40°50' E 014°17'0 0.0
2018-Aug-19 08:00N 40°50' E 014°17'0 0.0
2018-Aug-19 07:30N 40°50' E 014°17'0 0.0
2018-Aug-19 06:59N 40°50' E 014°17'0 0.0
2018-Aug-19 06:24N 40°50' E 014°17'0 0.0
2018-Aug-19 05:57N 40°50' E 014°17'0 0.0
2018-Aug-19 05:30N 40°50' E 014°17'0 0.0
2018-Aug-19 05:00N 40°50' E 014°17'0 1.0
2018-Aug-19 04:29N 40°50' E 014°17'3 6.4
2018-Aug-19 04:00N 40°47' E 014°17'1 2.6
2018-Aug-19 03:30N 40°46' E 014°17'0 0.3
2018-Aug-19 03:01N 40°46' E 014°16'0 0.3
2018-Aug-19 02:30N 40°46' E 014°16'0 0.7
2018-Aug-19 02:00N 40°46' E 014°16'1 1.0
2018-Aug-19 01:30N 40°45' E 014°16'3 5.6
2018-Aug-19 01:00N 40°43' E 014°14'4 8.5
2018-Aug-19 00:30N 40°41' E 014°09'713.4
2018-Aug-19 00:00N 40°38' E 014°01'714.7
2018-Aug-18 23:30N 40°38' E 013°51'714.6
2018-Aug-18 23:00N 40°38' E 013°42'714.6
2018-Aug-18 22:30N 40°40' E 013°32'714.7
2018-Aug-18 22:00N 40°41' E 013°23'815.4
2018-Aug-18 21:29N 40°43' E 013°13'715.5
2018-Aug-18 21:00N 40°45' E 013°03'815.6
2018-Aug-18 20:30N 40°47' E 012°53'815.4
2018-Aug-18 20:00N 40°49' E 012°43'15615.4
2018-Aug-18 09:49N 41°20' E 009°20'1013.8
2018-Aug-18 09:06N 41°18' E 009°07'114.3
2018-Aug-18 09:00N 41°18' E 009°06'714.8
2018-Aug-18 08:30N 41°19' E 008°56'714.8
2018-Aug-18 08:00N 41°19' E 008°46'815.4
2018-Aug-18 07:30N 41°19' E 008°36'815.4
2018-Aug-18 07:00N 41°19' E 008°25'815.5
2018-Aug-18 06:30N 41°18' E 008°15'815.4
2018-Aug-18 06:00N 41°18' E 008°05'815.4
2018-Aug-18 05:30N 41°18' E 007°54'815.4
2018-Aug-18 05:00N 41°18' E 007°44'815.3
2018-Aug-18 04:30N 41°18' E 007°34'815.0
2018-Aug-18 04:00N 41°19' E 007°24'714.9
2018-Aug-18 03:30N 41°18' E 007°14'815.1
2018-Aug-18 03:00N 41°18' E 007°04'915.2
2018-Aug-18 02:23N 41°18' E 006°52'615.3
2018-Aug-18 01:58N 41°18' E 006°43'815.3
2018-Aug-18 01:24N 41°18' E 006°32'1615.2
2018-Aug-18 00:22N 41°18' E 006°11'16615.2
2018-Aug-17 13:26N 41°16' E 002°29'715.2
2018-Aug-17 13:00N 41°16' E 002°21'713.9
2018-Aug-17 12:30N 41°16' E 002°11'3 5.7
2018-Aug-17 12:00N 41°19' E 002°09'0 0.6
2018-Aug-17 11:28N 41°19' E 002°09'0 0.0
2018-Aug-17 10:58N 41°19' E 002°09'0 0.2
2018-Aug-17 10:28N 41°19' E 002°09'0 0.2
2018-Aug-17 09:58N 41°19' E 002°09'0 0.0
2018-Aug-17 09:28N 41°18' E 002°09'0 0.0
2018-Aug-17 08:58N 41°18' E 002°09'0 0.2
2018-Aug-17 08:28N 41°19' E 002°09'0 0.0
2018-Aug-17 07:58N 41°19' E 002°09'0 0.0
2018-Aug-17 07:28N 41°19' E 002°09'0 0.2
2018-Aug-17 06:58N 41°19' E 002°09'0 0.0
2018-Aug-17 06:28N 41°19' E 002°09'0 0.0
2018-Aug-17 05:58N 41°19' E 002°09'0 0.0
2018-Aug-17 05:28N 41°18' E 002°09'0 0.0
2018-Aug-17 04:58N 41°19' E 002°09'0 0.0
2018-Aug-17 04:28N 41°18' E 002°09'0 0.0
2018-Aug-17 03:58N 41°19' E 002°09'0 0.0
2018-Aug-17 03:28N 41°19' E 002°09'0 0.0
2018-Aug-17 02:58N 41°19' E 002°09'0 0.0
2018-Aug-17 02:25N 41°18' E 002°09'0 0.0
2018-Aug-17 01:58N 41°19' E 002°09'0 0.0
2018-Aug-17 01:28N 41°18' E 002°09'0 0.3
2018-Aug-17 00:58N 41°19' E 002°09'0 0.0
2018-Aug-17 00:28N 41°19' E 002°09'0 0.2
2018-Aug-16 23:58N 41°19' E 002°09'0 0.0
2018-Aug-16 23:28N 41°18' E 002°09'0 0.0
2018-Aug-16 23:00N 41°18' E 002°09'1 2.6
2018-Aug-16 22:30N 41°20' E 002°10'2 5.0
2018-Aug-16 22:00N 41°17' E 002°11'510.2
2018-Aug-16 21:30N 41°17' E 002°18'2 3.8
2018-Aug-16 21:00N 41°16' E 002°20'0 0.3
2018-Aug-16 20:30N 41°16' E 002°20'0 0.6
2018-Aug-16 20:00N 41°16' E 002°20'0 0.3
2018-Aug-16 19:30N 41°16' E 002°20'0 0.8
2018-Aug-16 19:00N 41°16' E 002°21'0 0.6
2018-Aug-16 18:30N 41°16' E 002°21'0 0.3
2018-Aug-16 18:00N 41°16' E 002°21'0 0.4
2018-Aug-16 17:30N 41°16' E 002°21'0 0.3
2018-Aug-16 16:59N 41°16' E 002°20'0 0.4
2018-Aug-16 16:30N 41°16' E 002°20'0 0.4
2018-Aug-16 16:00N 41°16' E 002°20'0 0.5
2018-Aug-16 15:30N 41°17' E 002°20'0 0.4
2018-Aug-16 15:00N 41°17' E 002°19'0 0.4
2018-Aug-16 14:30N 41°17' E 002°19'0 0.4
2018-Aug-16 13:58N 41°16' E 002°19'0 0.7
2018-Aug-16 13:29N 41°16' E 002°20'0 0.5
2018-Aug-16 13:00N 41°16' E 002°20'0 0.2
2018-Aug-16 12:30N 41°16' E 002°20'0 0.2
2018-Aug-16 11:42N 41°16' E 002°19'0 0.5
2018-Aug-16 11:30N 41°16' E 002°19'0 0.4
2018-Aug-16 11:00N 41°16' E 002°19'0 0.5
2018-Aug-16 10:30N 41°17' E 002°19'0 0.9
2018-Aug-16 10:00N 41°17' E 002°19'0 0.7
2018-Aug-16 09:30N 41°17' E 002°18'0 0.8
2018-Aug-16 09:00N 41°17' E 002°18'0 0.5
2018-Aug-16 08:30N 41°16' E 002°18'0 0.3
2018-Aug-16 08:00N 41°16' E 002°18'0 0.5
2018-Aug-16 07:30N 41°16' E 002°18'0 0.7
2018-Aug-16 07:00N 41°16' E 002°18'0 0.1
2018-Aug-16 06:30N 41°16' E 002°18'0 0.0
2018-Aug-16 06:00N 41°16' E 002°18'0 0.2
2018-Aug-16 05:30N 41°16' E 002°18'0 0.9
2018-Aug-16 05:00N 41°15' E 002°18'0 0.9
2018-Aug-16 04:30N 41°15' E 002°18'0 0.9
2018-Aug-16 04:00N 41°14' E 002°18'0 0.9
2018-Aug-16 03:30N 41°14' E 002°17'0 0.8
2018-Aug-16 03:00N 41°14' E 002°17'0 0.6
2018-Aug-16 02:30N 41°13' E 002°17'0 0.3
2018-Aug-16 02:00N 41°13' E 002°17'0 0.1
2018-Aug-16 01:30N 41°13' E 002°17'0 0.1
2018-Aug-16 01:00N 41°13' E 002°17'0 0.3
2018-Aug-16 00:30N 41°13' E 002°18'0 0.1
2018-Aug-16 00:00N 41°13' E 002°18'0 0.0
2018-Aug-15 23:29N 41°13' E 002°18'0 0.2
2018-Aug-15 23:00N 41°13' E 002°17'0 0.1
2018-Aug-15 22:30N 41°13' E 002°17'0 0.2
2018-Aug-15 22:00N 41°13' E 002°17'1 1.2
2018-Aug-15 21:30N 41°13' E 002°18'0 0.2
2018-Aug-15 21:00N 41°13' E 002°18'0 0.9
2018-Aug-15 20:30N 41°13' E 002°19'1 1.5
2018-Aug-15 20:00N 41°13' E 002°20'0 0.6
2018-Aug-15 19:30N 41°13' E 002°20'0 0.7
2018-Aug-15 19:00N 41°13' E 002°20'0 0.8
2018-Aug-15 18:30N 41°13' E 002°20'0 0.1
2018-Aug-15 17:51N 41°13' E 002°20'0 0.6
2018-Aug-15 17:27N 41°14' E 002°20'0 0.2
2018-Aug-15 17:00N 41°13' E 002°20'0 0.3
2018-Aug-15 16:29N 41°14' E 002°20'0 0.7
2018-Aug-15 16:00N 41°14' E 002°20'1 1.0
2018-Aug-15 15:28N 41°14' E 002°19'2 3.4
2018-Aug-15 15:00N 41°15' E 002°17'3 5.0
2018-Aug-15 14:30N 41°14' E 002°14'611.4
2018-Aug-15 14:00N 41°10' E 002°09'611.2
2018-Aug-15 13:30N 41°05' E 002°05'611.3
2018-Aug-15 13:00N 41°00' E 002°02'611.7
2018-Aug-15 12:28N 40°55' E 001°58'511.6
2018-Aug-15 12:00N 40°50' E 001°54'16813.5
2018-Aug-14 23:33N 38°22' E 000°11'313.8
2018-Aug-14 23:18N 38°19' E 000°09'3514.4
2018-Aug-14 20:53N 37°50' W 000°15'614.2
2018-Aug-14 20:27N 37°45' W 000°20'614.2
2018-Aug-14 20:00N 37°40' W 000°25'814.2
2018-Aug-14 19:29N 37°34' W 000°30'814.0
2018-Aug-14 18:55N 37°28' W 000°37'614.3
2018-Aug-14 18:30N 37°24' W 000°42'714.6
2018-Aug-14 18:00N 37°19' W 000°49'714.6
2018-Aug-14 17:30N 37°15' W 000°56'20416.0
2018-Aug-14 04:44N 36°02' W 004°54'620.0
2018-Aug-14 04:27N 36°01' W 005°01'1021.9
2018-Aug-14 04:01N 35°59' W 005°12'1121.1
2018-Aug-14 03:31N 35°58' W 005°25'1019.4
2018-Aug-14 02:58N 35°55' W 005°38'816.4
2018-Aug-14 02:31N 35°54' W 005°47'917.4
2018-Aug-14 01:59N 35°54' W 005°58'818.0
2018-Aug-14 01:30N 35°54' W 006°09'3018.7
2018-Aug-13 23:54N 35°60' W 006°45'3218.9
2018-Aug-13 22:12N 36°08' W 007°24'419.0
2018-Aug-13 21:58N 36°09' W 007°29'818.4
2018-Aug-13 21:30N 36°11' W 007°39'918.9
2018-Aug-13 21:00N 36°14' W 007°50'1119.2
2018-Aug-13 20:27N 36°17' W 008°03'819.0
2018-Aug-13 20:01N 36°19' W 008°13'1018.9
2018-Aug-13 19:30N 36°21' W 008°25'918.7
2018-Aug-13 19:00N 36°23' W 008°36'918.5
2018-Aug-13 18:31N 36°26' W 008°47'918.5
2018-Aug-13 18:00N 36°28' W 008°58'918.8
2018-Aug-13 17:31N 36°31' W 009°09'917.6
2018-Aug-13 17:01N 36°35' W 009°19'918.6
2018-Aug-13 16:31N 36°42' W 009°26'918.7
2018-Aug-13 16:00N 36°50' W 009°33'918.8
2018-Aug-13 15:30N 36°59' W 009°34'918.5
2018-Aug-13 15:00N 37°07' W 009°29'1019.0
2018-Aug-13 14:30N 37°15' W 009°22'1019.3
2018-Aug-13 14:00N 37°23' W 009°15'918.8
2018-Aug-13 13:30N 37°31' W 009°09'918.7
2018-Aug-13 13:01N 37°39' W 009°02'918.0
2018-Aug-13 12:31N 37°46' W 008°56'815.8
2018-Aug-13 12:00N 37°53' W 008°51'3 5.4
2018-Aug-13 11:31N 37°56' W 008°51'0 0.0
2018-Aug-13 10:58N 37°56' W 008°51'0 0.0
2018-Aug-13 10:28N 37°56' W 008°51'0 0.0
2018-Aug-13 09:58N 37°56' W 008°51'0 0.0
2018-Aug-13 09:28N 37°56' W 008°51'0 0.0
2018-Aug-13 08:55N 37°56' W 008°51'0 0.0
2018-Aug-13 08:28N 37°56' W 008°51'0 0.0
2018-Aug-13 07:58N 37°56' W 008°51'0 0.0
2018-Aug-13 07:28N 37°56' W 008°51'0 0.0
2018-Aug-13 06:58N 37°56' W 008°51'0 0.0
2018-Aug-13 06:28N 37°56' W 008°51'0 0.0
2018-Aug-13 05:58N 37°56' W 008°51'0 0.0
2018-Aug-13 05:28N 37°56' W 008°51'0 0.0
2018-Aug-13 04:58N 37°56' W 008°51'0 0.0
2018-Aug-13 04:28N 37°56' W 008°51'0 0.0
2018-Aug-13 03:58N 37°56' W 008°51'0 0.0
2018-Aug-13 03:28N 37°56' W 008°51'0 0.0
2018-Aug-13 02:58N 37°56' W 008°51'0 0.0
2018-Aug-13 02:28N 37°56' W 008°51'0 0.0
2018-Aug-13 01:55N 37°56' W 008°51'0 0.0
2018-Aug-13 01:25N 37°56' W 008°51'0 0.0
2018-Aug-13 00:58N 37°56' W 008°51'0 0.0
2018-Aug-13 00:28N 37°56' W 008°51'0 0.0
2018-Aug-12 23:58N 37°56' W 008°51'0 0.0
2018-Aug-12 23:28N 37°56' W 008°51'0 0.0
2018-Aug-12 22:58N 37°56' W 008°51'0 0.0
2018-Aug-12 22:28N 37°56' W 008°51'0 0.0
2018-Aug-12 21:58N 37°56' W 008°51'0 0.0
2018-Aug-12 21:28N 37°56' W 008°51'0 0.0
2018-Aug-12 20:58N 37°56' W 008°51'0 0.0
2018-Aug-12 20:28N 37°56' W 008°51'0 0.0
2018-Aug-12 19:58N 37°56' W 008°51'0 0.0
2018-Aug-12 19:28N 37°56' W 008°51'0 0.0
2018-Aug-12 18:58N 37°56' W 008°51'0 0.6
2018-Aug-12 18:30N 37°56' W 008°51'1 3.0
2018-Aug-12 18:00N 37°54' W 008°51'4 8.6
2018-Aug-12 17:30N 37°52' W 008°56'2 3.6
2018-Aug-12 17:00N 37°52' W 008°58'816.3
2018-Aug-12 16:30N 37°53' W 009°08'917.7
2018-Aug-12 16:00N 37°52' W 009°19'917.6
2018-Aug-12 15:30N 37°51' W 009°30'917.7
2018-Aug-12 15:00N 37°52' W 009°42'917.7
2018-Aug-12 14:30N 37°53' W 009°53'917.6
2018-Aug-12 13:59N 37°54' W 010°04'917.7
2018-Aug-12 13:30N 37°53' W 010°15'917.6
2018-Aug-12 13:00N 37°54' W 010°26'917.7
2018-Aug-12 12:30N 37°54' W 010°37'918.1
2018-Aug-12 12:00N 37°54' W 010°49'918.2
2018-Aug-12 11:30N 37°54' W 011°01'1017.8
2018-Aug-12 10:57N 37°54' W 011°13'1117.8
2018-Aug-12 10:21N 37°54' W 011°26'817.5
2018-Aug-12 09:54N 37°54' W 011°36'717.8
2018-Aug-12 09:29N 37°54' W 011°46'1817.8
2018-Aug-12 08:29N 37°55' W 012°08'1218.0
2018-Aug-12 07:50N 37°55' W 012°23'918.2
2018-Aug-12 07:19N 37°55' W 012°35'1317.8
2018-Aug-12 06:37N 37°54' W 012°51'51718.0
2018-Aug-11 01:52N 37°59' W 023°47'718.4
2018-Aug-11 01:30N 37°59' W 023°56'918.6
2018-Aug-11 01:00N 37°59' W 024°07'918.3
2018-Aug-11 00:30N 37°59' W 024°19'918.4
2018-Aug-11 00:00N 37°59' W 024°31'918.2
2018-Aug-10 23:30N 37°59' W 024°42'918.6
2018-Aug-10 23:00N 37°59' W 024°54'918.4
2018-Aug-10 22:30N 37°59' W 025°06'918.4
2018-Aug-10 22:00N 37°59' W 025°17'918.7
2018-Aug-10 21:30N 37°59' W 025°29'918.7
2018-Aug-10 21:00N 37°60' W 025°41'918.3
2018-Aug-10 20:30N 38°00' W 025°52'918.3
2018-Aug-10 20:00N 38°00' W 026°04'918.6
2018-Aug-10 19:30N 38°00' W 026°16'918.1
2018-Aug-10 19:00N 37°60' W 026°27'917.8
2018-Aug-10 18:30N 37°59' W 026°39'918.5
2018-Aug-10 18:00N 37°59' W 026°50'918.6
2018-Aug-10 17:30N 37°59' W 027°02'918.2
2018-Aug-10 17:00N 37°59' W 027°14'918.9
2018-Aug-10 16:30N 37°59' W 027°26'918.7
2018-Aug-10 16:00N 37°59' W 027°38'918.5
2018-Aug-10 15:30N 37°59' W 027°49'919.0
2018-Aug-10 15:01N 37°58' W 028°01'917.2
2018-Aug-10 14:30N 37°58' W 028°12'919.1
2018-Aug-10 14:01N 37°58' W 028°24'918.5
2018-Aug-10 13:31N 37°58' W 028°36'918.4
2018-Aug-10 13:01N 37°57' W 028°48'1019.1
2018-Aug-10 12:31N 37°57' W 028°60'918.5
2018-Aug-10 12:01N 37°57' W 029°11'918.9
2018-Aug-10 11:31N 37°56' W 029°23'918.9
2018-Aug-10 11:01N 37°56' W 029°35'918.5
2018-Aug-10 10:30N 37°55' W 029°47'918.6
2018-Aug-10 10:00N 37°55' W 029°59'918.5
2018-Aug-10 09:30N 37°54' W 030°11'1018.6
2018-Aug-10 08:57N 37°54' W 030°24'  

Dump ship's entire track history